Time;durP1;ratioP1;P1;durP2;ratioP2;P2;SDS_P1;SDS_P2;PMS_P1;PMS_P2;Temp;Humidity;BMP_temperature;BMP_pressure;BME280_temperature;BME280_humidity;BME280_pressure;Samples;Min_cycle;Max_cycle;Signal;HPM_P1;HPM_P2
2021/10/15 00:01:53;;;;;;;0.75;0.55;;;;;;;6.25;59.49;99508.88;5035037;28;20426;-61
2021/10/15 00:04:22;;;;;;;0.22;0.22;;;;;;;6.23;59.57;99511.78;5035256;28;20128;-63
2021/10/15 00:06:51;;;;;;;0.80;0.80;;;;;;;6.20;59.63;99504.00;5035059;28;20481;-63
2021/10/15 00:09:21;;;;;;;0.40;0.40;;;;;;;6.18;59.79;99502.47;5034970;28;20037;-62
2021/10/15 00:11:52;;;;;;;0.30;0.30;;;;;;;6.14;59.96;99491.13;5034877;28;20570;-62
2021/10/15 00:14:18;;;;;;;0.75;0.75;;;;;;;6.11;59.76;99500.50;5034429;28;20510;-62
2021/10/15 00:16:46;;;;;;;0.38;0.38;;;;;;;6.08;59.90;99498.16;5053025;28;20057;-62
2021/10/15 00:19:14;;;;;;;0.55;0.55;;;;;;;6.06;59.81;99499.38;5034997;28;20040;-62
2021/10/15 00:21:40;;;;;;;0.20;0.20;;;;;;;6.03;59.93;99500.59;5034677;28;20049;-62
2021/10/15 00:24:08;;;;;;;0.60;0.60;;;;;;;6.01;59.93;99493.63;5034544;28;20041;-62
2021/10/15 00:26:36;;;;;;;0.50;0.50;;;;;;;5.97;60.01;99491.28;5034688;28;20041;-62
2021/10/15 00:29:05;;;;;;;0.35;0.35;;;;;;;5.96;60.14;99495.03;5034586;28;20488;-63
2021/10/15 00:31:33;;;;;;;1.65;1.40;;;;;;;5.94;60.12;99486.19;5052288;28;20047;-62
2021/10/15 00:34:00;;;;;;;0.40;0.40;;;;;;;5.93;60.14;99497.28;5034905;28;20036;-62
2021/10/15 00:36:30;;;;;;;1.23;1.10;;;;;;;5.90;60.20;99495.78;5026376;28;20045;-62
2021/10/15 00:39:00;;;;;;;1.30;0.63;;;;;;;5.86;60.29;99494.47;5014570;28;20048;-63
2021/10/15 00:41:28;;;;;;;0.40;0.40;;;;;;;5.82;60.44;99484.13;5014477;28;20130;-63
2021/10/15 00:43:59;;;;;;;0.20;0.20;;;;;;;5.78;60.49;99487.22;5014721;28;20045;-63
2021/10/15 00:46:26;;;;;;;3.70;0.60;;;;;;;5.75;60.45;99486.75;5014466;28;20092;-66
2021/10/15 00:48:55;;;;;;;0.30;0.30;;;;;;;5.72;60.47;99490.69;5014478;28;20041;-64
2021/10/15 00:51:25;;;;;;;0.47;0.47;;;;;;;5.69;60.60;99484.78;5014347;28;20042;-65
2021/10/15 00:53:53;;;;;;;0.20;0.20;;;;;;;5.67;60.63;99482.25;5032267;28;20069;-62
2021/10/15 00:56:21;;;;;;;0.50;0.50;;;;;;;5.64;60.71;99470.84;5032162;28;20049;-64
2021/10/15 00:58:50;;;;;;;0.73;0.55;;;;;;;5.61;60.70;99481.09;5014654;28;20052;-64
2021/10/15 01:01:17;;;;;;;0.82;0.82;;;;;;;5.57;60.79;99477.06;5013991;28;20104;-63
2021/10/15 01:03:46;;;;;;;0.43;0.43;;;;;;;5.54;60.87;99480.16;5014655;28;20068;-63
2021/10/15 01:06:13;;;;;;;0.50;0.50;;;;;;;5.49;60.94;99470.84;5014202;28;20590;-64
2021/10/15 01:08:48;;;;;;;0.50;0.50;;;;;;;5.49;60.99;99463.53;5014327;28;20041;-63
2021/10/15 01:11:15;;;;;;;0.35;0.35;;;;;;;5.50;60.85;99472.53;5032234;28;20121;-62
2021/10/15 01:13:41;;;;;;;0.30;0.30;;;;;;;5.53;60.76;99464.84;5014243;28;20479;-62
2021/10/15 01:16:10;;;;;;;0.40;0.40;;;;;;;5.56;60.71;99458.19;5013842;28;20104;-61
2021/10/15 01:18:39;;;;;;;0.45;0.45;;;;;;;5.60;60.64;99462.22;5013975;28;20037;-62
2021/10/15 01:21:09;;;;;;;0.75;0.65;;;;;;;5.65;60.52;99453.50;5014396;28;20412;-62
2021/10/15 01:23:36;;;;;;;0.20;0.20;;;;;;;5.68;60.36;99453.09;5014323;28;20116;-61
2021/10/15 01:26:05;;;;;;;0.30;0.30;;;;;;;5.71;60.30;99450.00;5014726;28;20045;-62
2021/10/15 01:28:33;;;;;;;0.20;0.20;;;;;;;5.72;60.22;99457.16;5017929;28;20041;-63
2021/10/15 01:31:02;;;;;;;0.43;0.43;;;;;;;5.73;60.22;99451.53;5017522;28;20442;-64
2021/10/15 01:33:30;;;;;;;1.35;1.17;;;;;;;5.73;60.28;99456.97;5017790;28;20037;-62
2021/10/15 01:35:57;;;;;;;0.22;0.22;;;;;;;5.74;60.25;99452.34;5035976;28;20037;-63
2021/10/15 01:38:24;;;;;;;0.20;0.20;;;;;;;5.73;60.23;99447.97;5018251;28;20049;-62
2021/10/15 01:40:54;;;;;;;0.50;0.50;;;;;;;5.73;60.31;99445.22;5017909;28;20044;-63
2021/10/15 01:43:28;;;;;;;0.60;0.60;;;;;;;5.73;60.27;99437.91;5017898;28;20044;-62
2021/10/15 01:45:57;;;;;;;1.13;0.80;;;;;;;5.75;60.11;99444.00;5017818;28;20412;-62
2021/10/15 01:48:26;;;;;;;0.30;0.30;;;;;;;5.76;60.11;99437.50;5017913;28;20443;-62
2021/10/15 01:50:54;;;;;;;0.73;0.73;;;;;;;5.76;60.01;99432.06;5017912;28;20059;-63
2021/10/15 01:53:23;;;;;;;0.57;0.50;;;;;;;5.77;60.06;99441.94;5018265;28;20049;-64
2021/10/15 01:55:52;;;;;;;0.40;0.40;;;;;;;5.77;60.10;99444.66;5017360;28;20053;-63
2021/10/15 01:58:21;;;;;;;0.60;0.60;;;;;;;5.75;60.11;99440.44;5017395;28;20043;-62
2021/10/15 02:00:48;;;;;;;0.50;0.50;;;;;;;5.73;60.17;99440.63;5022292;28;20041;-63
2021/10/15 02:03:17;;;;;;;0.70;0.57;;;;;;;5.72;60.01;99438.09;5055170;28;20053;-63
2021/10/15 02:05:44;;;;;;;0.30;0.30;;;;;;;5.70;60.09;99440.16;5037234;28;20047;-64
2021/10/15 02:08:13;;;;;;;0.40;0.40;;;;;;;5.70;59.97;99434.72;5036583;28;20048;-64
2021/10/15 02:10:40;;;;;;;0.20;0.20;;;;;;;5.67;60.24;99430.47;5037032;28;20040;-64
2021/10/15 02:13:06;;;;;;;0.40;0.40;;;;;;;5.67;60.13;99433.19;5037087;28;20048;-62
2021/10/15 02:15:34;;;;;;;0.25;0.25;;;;;;;5.69;60.02;99427.56;5037069;28;20033;-64
2021/10/15 02:18:03;;;;;;;0.40;0.40;;;;;;;5.71;60.06;99426.34;5037270;28;20056;-65
2021/10/15 02:20:31;;;;;;;0.40;0.40;;;;;;;5.71;60.09;99425.47;5036857;28;20037;-65
2021/10/15 02:22:59;;;;;;;0.35;0.30;;;;;;;5.71;59.97;99418.19;5037065;28;20124;-64
2021/10/15 02:25:24;;;;;;;0.25;0.25;;;;;;;5.74;59.92;99416.94;5036970;28;20037;-64
2021/10/15 02:27:52;;;;;;;0.70;0.70;;;;;;;5.75;59.94;99411.28;5037460;28;20045;-64
2021/10/15 02:30:20;;;;;;;0.75;0.60;;;;;;;5.76;59.88;99407.53;5036854;28;20048;-63
2021/10/15 02:32:49;;;;;;;0.20;0.20;;;;;;;5.75;59.95;99410.47;5036811;28;20389;-64
2021/10/15 02:35:17;;;;;;;0.57;0.57;;;;;;;5.76;60.00;99407.53;5036507;28;20052;-64
2021/10/15 02:37:45;;;;;;;0.20;0.20;;;;;;;5.77;59.86;99403.78;5035960;28;20139;-64
2021/10/15 02:40:12;;;;;;;0.55;0.45;;;;;;;5.79;59.92;99406.31;5032633;28;20045;-65
2021/10/15 02:42:42;;;;;;;0.40;0.40;;;;;;;5.83;59.75;99410.38;5016600;28;20037;-65
2021/10/15 02:45:10;;;;;;;0.25;0.25;;;;;;;5.88;59.65;99412.53;5017550;28;20049;-66
2021/10/15 02:47:37;;;;;;;0.30;0.30;;;;;;;5.91;59.76;99412.97;5036796;28;20103;-66
2021/10/15 02:50:06;;;;;;;1.33;1.23;;;;;;;5.95;59.52;99411.56;5036130;28;20048;-66
2021/10/15 02:52:36;;;;;;;0.40;0.40;;;;;;;6.01;59.38;99411.84;5054049;28;20069;-65
2021/10/15 02:55:03;;;;;;;0.30;0.30;;;;;;;6.04;59.29;99408.78;5036200;28;20142;-64
2021/10/15 02:57:33;;;;;;;0.43;0.43;;;;;;;6.10;59.14;99413.47;5054211;28;20041;-64
2021/10/15 03:00:01;;;;;;;0.95;0.47;;;;;;;6.15;59.14;99419.16;5035554;28;20131;-64
2021/10/15 03:02:27;;;;;;;0.50;0.50;;;;;;;6.20;59.12;99415.88;5041270;28;20080;-66
2021/10/15 03:04:55;;;;;;;0.30;0.30;;;;;;;6.27;58.92;99412.19;5025810;28;20066;-63
2021/10/15 03:07:23;;;;;;;0.60;0.60;;;;;;;6.37;58.89;99413.75;5025440;28;20507;-64
2021/10/15 03:09:52;;;;;;;0.40;0.40;;;;;;;6.44;58.84;99418.25;5026718;28;20496;-65
2021/10/15 03:12:21;;;;;;;0.30;0.30;;;;;;;6.47;58.62;99404.22;5024558;28;20095;-65
2021/10/15 03:14:49;;;;;;;0.40;0.38;;;;;;;6.59;58.46;99412.72;5025585;28;20059;-64
2021/10/15 03:17:17;;;;;;;0.20;0.20;;;;;;;6.63;58.38;99408.59;5024012;28;20072;-64
2021/10/15 03:19:46;;;;;;;0.25;0.25;;;;;;;6.70;58.26;99402.34;5023439;28;20073;-63
2021/10/15 03:22:14;;;;;;;0.38;0.38;;;;;;;6.75;58.16;99402.59;5025305;28;20083;-65
2021/10/15 03:24:43;;;;;;;0.30;0.30;;;;;;;6.80;58.12;99402.84;5025013;28;20037;-65
2021/10/15 03:27:12;;;;;;;0.65;0.30;;;;;;;6.87;58.13;99400.19;5023200;28;20033;-64
2021/10/15 03:29:42;;;;;;;5.05;0.40;;;;;;;6.93;58.09;99400.25;5023952;28;20036;-65
2021/10/15 03:32:12;;;;;;;0.68;0.43;;;;;;;7.01;57.88;99396.53;5025192;28;20045;-65
2021/10/15 03:34:45;;;;;;;0.35;0.30;;;;;;;7.08;57.78;99393.84;5024519;28;20044;-64
2021/10/15 03:37:15;;;;;;;0.30;0.30;;;;;;;7.12;57.60;99385.06;5026447;28;20135;-65
2021/10/15 03:39:45;;;;;;;0.95;0.50;;;;;;;7.17;57.70;99387.22;5023916;28;20522;-65
2021/10/15 03:42:13;;;;;;;0.70;0.70;;;;;;;7.23;57.67;99380.09;5024948;28;20033;-64
2021/10/15 03:44:40;;;;;;;0.20;0.20;;;;;;;7.27;57.45;99382.22;5024213;28;20519;-63
2021/10/15 03:47:07;;;;;;;0.22;0.22;;;;;;;7.37;57.29;99382.72;5023384;28;20042;-64
2021/10/15 03:49:35;;;;;;;0.30;0.30;;;;;;;7.48;57.23;99383.19;5024214;28;20040;-64
2021/10/15 03:52:03;;;;;;;0.60;0.60;;;;;;;7.58;57.04;99372.75;5024451;28;20037;-64
2021/10/15 03:54:31;;;;;;;0.40;0.40;;;;;;;7.72;56.69;99369.03;5022610;28;20033;-65
2021/10/15 03:57:01;;;;;;;0.75;0.75;;;;;;;7.87;56.59;99366.16;5027772;28;20116;-65
2021/10/15 03:59:30;;;;;;;0.40;0.40;;;;;;;8.00;56.33;99362.66;5024182;28;20040;-63
2021/10/15 04:01:59;;;;;;;0.73;0.73;;;;;;;8.12;55.94;99362.06;5023594;28;20048;-65
2021/10/15 04:04:28;;;;;;;0.65;0.63;;;;;;;8.23;56.02;99358.75;5022986;28;20047;-64
2021/10/15 04:06:56;;;;;;;0.28;0.28;;;;;;;8.37;55.62;99354.13;5041061;28;20047;-63
2021/10/15 04:09:23;;;;;;;0.30;0.30;;;;;;;8.46;55.70;99360.28;5023136;28;20128;-63
2021/10/15 04:11:52;;;;;;;0.30;0.30;;;;;;;8.55;55.63;99362.63;5022241;28;20404;-65
2021/10/15 04:14:20;;;;;;;0.30;0.30;;;;;;;8.63;55.31;99363.47;5023628;28;20055;-64
2021/10/15 04:16:48;;;;;;;0.35;0.35;;;;;;;8.69;55.51;99365.38;5024473;28;20041;-63
2021/10/15 04:19:16;;;;;;;0.20;0.20;;;;;;;8.74;55.24;99355.47;5022964;28;20045;-63
2021/10/15 04:21:45;;;;;;;0.20;0.20;;;;;;;8.83;55.32;99363.50;5023035;28;20036;-64
2021/10/15 04:24:14;;;;;;;0.20;0.20;;;;;;;8.89;55.15;99354.44;5022694;28;20064;-64
2021/10/15 04:26:42;;;;;;;0.45;0.45;;;;;;;8.93;54.96;99348.31;5023160;28;20496;-65
2021/10/15 04:29:11;;;;;;;0.55;0.55;;;;;;;8.99;55.11;99352.09;5024241;28;20036;-64
2021/10/15 04:31:39;;;;;;;1.60;0.75;;;;;;;9.04;54.94;99348.72;5023265;28;20041;-65
2021/10/15 04:34:08;;;;;;;0.52;0.40;;;;;;;9.06;55.22;99352.94;5022389;28;20041;-65
2021/10/15 04:36:36;;;;;;;0.40;0.40;;;;;;;9.06;55.11;99347.47;5022502;28;20048;-65
2021/10/15 04:39:06;;;;;;;0.30;0.30;;;;;;;9.09;55.21;99346.22;5023003;28;20439;-65
2021/10/15 04:41:34;;;;;;;0.32;0.32;;;;;;;9.11;54.88;99342.22;5022457;28;20484;-64
2021/10/15 04:44:02;;;;;;;2.47;0.82;;;;;;;9.16;54.77;99340.72;5022946;28;20392;-64
2021/10/15 04:46:30;;;;;;;0.68;0.43;;;;;;;9.22;54.59;99335.22;5024257;28;20057;-65
2021/10/15 04:48:59;;;;;;;3.45;1.50;;;;;;;9.27;54.83;99334.59;5022626;28;20084;-63
2021/10/15 04:51:29;;;;;;;0.50;0.50;;;;;;;9.36;54.39;99329.72;5021860;28;20073;-66
2021/10/15 04:53:58;;;;;;;0.55;0.43;;;;;;;9.41;54.62;99333.50;5023369;28;20099;-64
2021/10/15 04:56:26;;;;;;;2.67;0.80;;;;;;;9.45;54.33;99329.28;5022873;28;20041;-63
2021/10/15 04:58:54;;;;;;;1.90;0.30;;;;;;;9.45;54.33;99318.34;5043296;28;20389;-62
2021/10/15 05:01:24;;;;;;;0.20;0.20;;;;;;;9.45;54.47;99329.28;5013705;28;20053;-63
2021/10/15 05:03:52;;;;;;;0.40;0.25;;;;;;;9.49;54.18;99320.63;5015819;28;20049;-63
2021/10/15 05:06:21;;;;;;;0.25;0.25;;;;;;;9.49;54.56;99324.22;5014589;28;20045;-63
2021/10/15 05:09:01;;;;;;;4.57;1.10;;;;;;;9.43;54.53;99328.66;5013884;28;20562;-63
2021/10/15 05:11:29;;;;;;;0.30;0.30;;;;;;;9.41;54.50;99319.81;5031490;28;20037;-63
2021/10/15 05:13:57;;;;;;;0.20;0.20;;;;;;;9.40;54.50;99314.53;5012512;28;20040;-63
2021/10/15 05:16:24;;;;;;;0.30;0.30;;;;;;;9.42;54.17;99324.25;5011672;28;20045;-64
2021/10/15 05:18:54;;;;;;;1.55;0.40;;;;;;;9.45;54.43;99328.44;5011731;28;20111;-63
2021/10/15 05:21:22;;;;;;;2.40;0.30;;;;;;;9.51;54.15;99322.13;5012502;28;20167;-64
2021/10/15 05:23:52;;;;;;;0.22;0.22;;;;;;;9.59;53.72;99315.53;5013507;28;20128;-64
2021/10/15 05:26:21;;;;;;;0.30;0.30;;;;;;;9.63;53.72;99317.63;5013888;28;20203;-64
2021/10/15 05:28:55;;;;;;;2.17;0.70;;;;;;;9.67;53.82;99315.28;5013948;28;20054;-64
2021/10/15 05:31:24;;;;;;;0.20;0.20;;;;;;;9.65;53.61;99312.75;5013906;28;20037;-63
2021/10/15 05:33:51;;;;;;;0.32;0.32;;;;;;;9.64;53.69;99308.34;5014363;28;20041;-64
2021/10/15 05:36:21;;;;;;;0.35;0.35;;;;;;;9.64;53.88;99294.66;5014258;28;20053;-65
2021/10/15 05:38:48;;;;;;;0.32;0.32;;;;;;;9.65;53.59;99301.78;5014233;28;20042;-64
2021/10/15 05:41:17;;;;;;;0.40;0.40;;;;;;;9.65;53.69;99285.34;5014091;28;20408;-64
2021/10/15 05:43:45;;;;;;;0.52;0.43;;;;;;;9.65;53.49;99292.75;5013933;28;20092;-63
2021/10/15 05:46:14;;;;;;;0.45;0.45;;;;;;;9.65;53.63;99282.59;5014189;28;20089;-64
2021/10/15 05:48:41;;;;;;;0.30;0.30;;;;;;;9.66;53.49;99277.97;5014159;28;20041;-65
2021/10/15 05:51:09;;;;;;;0.30;0.30;;;;;;;9.67;53.35;99268.66;5013932;28;20041;-64
2021/10/15 05:53:35;;;;;;;1.35;0.70;;;;;;;9.71;53.49;99275.41;5031989;28;20410;-63
2021/10/15 05:58:53;;;;;;;0.50;0.50;;;;;;;9.85;52.92;99261.63;5032297;28;20516;-64
2021/10/15 06:01:25;;;;;;;0.20;0.20;;;;;;;9.91;52.98;99268.97;5013503;28;20042;-64
2021/10/15 06:04:13;;;;;;;0.28;0.25;;;;;;;9.95;52.96;99260.13;5013890;28;20060;-64
2021/10/15 06:14:56;;;;;;;0.45;0.45;;;;;;;10.05;52.74;99259.63;5035389;28;20068;-64
2021/10/15 06:17:26;;;;;;;0.35;0.35;;;;;;;10.06;52.47;99250.31;5017651;28;20096;-65
2021/10/15 06:19:54;;;;;;;0.30;0.30;;;;;;;10.11;52.70;99238.69;5035465;28;20045;-67
2021/10/15 06:22:24;;;;;;;0.35;0.35;;;;;;;10.15;52.26;99242.69;5017232;28;20041;-65
2021/10/15 06:24:52;;;;;;;3.40;0.40;;;;;;;10.18;52.21;99234.81;5017059;28;20038;-65
2021/10/15 06:27:19;;;;;;;0.60;0.50;;;;;;;10.22;52.11;99239.88;5015529;28;20139;-66
2021/10/15 06:29:48;;;;;;;0.35;0.35;;;;;;;10.23;52.25;99238.81;5014989;28;20135;-65
2021/10/15 06:32:16;;;;;;;0.25;0.25;;;;;;;10.29;51.96;99230.53;5033094;28;20038;-64
2021/10/15 06:34:42;;;;;;;0.20;0.20;;;;;;;10.33;52.27;99230.94;5016370;28;20041;-66
2021/10/15 06:37:09;;;;;;;0.52;0.52;;;;;;;10.34;51.93;99232.66;5016438;28;20627;-65
2021/10/15 06:39:39;;;;;;;0.25;0.25;;;;;;;10.38;52.09;99220.16;5016581;28;20033;-66
2021/10/15 06:42:06;;;;;;;0.80;0.80;;;;;;;10.43;51.76;99222.25;5016930;28;20111;-64
2021/10/15 06:44:33;;;;;;;0.43;0.43;;;;;;;10.48;51.75;99217.75;5017077;28;20041;-65
2021/10/15 06:47:01;;;;;;;0.30;0.30;;;;;;;10.55;51.74;99197.63;5016988;28;20492;-64
2021/10/15 06:49:28;;;;;;;0.60;0.60;;;;;;;10.59;51.59;99207.94;5016719;28;20041;-66
2021/10/15 06:51:56;;;;;;;0.90;0.28;;;;;;;10.66;51.23;99194.16;5034643;28;20045;-64
2021/10/15 06:54:25;;;;;;;0.40;0.40;;;;;;;10.71;51.19;99202.53;5016960;28;20041;-67
2021/10/15 06:56:52;;;;;;;4.40;0.70;;;;;;;10.75;51.10;99195.53;5016741;28;20041;-64
2021/10/15 06:59:21;;;;;;;0.20;0.20;;;;;;;10.81;51.13;99200.13;5015961;28;20045;-65
2021/10/15 07:01:50;;;;;;;4.40;0.85;;;;;;;10.87;51.28;99201.94;5016200;28;20049;-63
2021/10/15 07:04:19;;;;;;;0.77;0.77;;;;;;;10.95;50.89;99194.47;5016327;28;20052;-65
2021/10/15 07:06:46;;;;;;;0.73;0.73;;;;;;;10.98;50.68;99185.78;5016534;28;20041;-65
2021/10/15 07:09:15;;;;;;;0.28;0.28;;;;;;;11.03;50.96;99188.69;5016352;28;20037;-64
2021/10/15 07:11:46;;;;;;;0.30;0.30;;;;;;;11.08;50.74;99174.25;5016587;28;20041;-65
2021/10/15 07:14:13;;;;;;;0.68;0.68;;;;;;;11.11;50.46;99177.38;5034504;28;20071;-67
2021/10/15 07:16:40;;;;;;;0.52;0.43;;;;;;;11.16;50.61;99182.19;5016212;28;20420;-65
2021/10/15 07:19:08;;;;;;;0.40;0.40;;;;;;;11.22;50.38;99184.88;5034371;28;20049;-65
2021/10/15 07:21:36;;;;;;;0.50;0.50;;;;;;;11.30;50.49;99174.63;5016553;28;20048;-65
2021/10/15 07:24:05;;;;;;;0.32;0.32;;;;;;;11.36;50.21;99168.22;5015105;28;20037;-64
2021/10/15 07:26:31;;;;;;;0.57;0.57;;;;;;;11.43;50.07;99171.72;5016117;28;20048;-64
2021/10/15 07:28:59;;;;;;;1.13;1.02;;;;;;;11.50;49.96;99172.47;5015954;28;20032;-66
2021/10/15 07:31:29;;;;;;;0.43;0.43;;;;;;;11.56;49.88;99167.94;5015421;28;20128;-65
2021/10/15 07:33:57;;;;;;;0.50;0.50;;;;;;;11.62;50.01;99172.50;5015790;28;20043;-65
2021/10/15 07:36:27;;;;;;;0.38;0.38;;;;;;;11.66;49.59;99157.22;5015833;28;20120;-67
2021/10/15 07:38:55;;;;;;;0.63;0.40;;;;;;;11.71;49.69;99162.03;5015919;28;20065;-64
2021/10/15 07:41:24;;;;;;;2.92;0.45;;;;;;;11.75;49.86;99152.25;5015414;28;20052;-64
2021/10/15 07:43:53;;;;;;;0.30;0.30;;;;;;;11.79;49.48;99150.66;5015610;28;20046;-64
2021/10/15 07:46:22;;;;;;;0.70;0.70;;;;;;;11.82;49.35;99150.22;5016029;28;20490;-67
2021/10/15 07:48:50;;;;;;;0.20;0.20;;;;;;;11.87;49.60;99141.28;5015771;28;20044;-65
2021/10/15 07:51:16;;;;;;;0.30;0.30;;;;;;;11.92;49.28;99136.75;5015542;28;20500;-65
2021/10/15 07:53:45;;;;;;;0.32;0.32;;;;;;;11.96;49.20;99128.88;5015600;28;20040;-65
2021/10/15 07:56:12;;;;;;;0.75;0.47;;;;;;;11.98;49.37;99121.19;5015374;28;20076;-64
2021/10/15 07:58:41;;;;;;;0.30;0.30;;;;;;;12.02;49.33;99125.16;5015236;28;20048;-64
2021/10/15 08:01:11;;;;;;;0.95;0.45;;;;;;;12.06;49.22;99128.31;5014831;28;20045;-67
2021/10/15 08:03:40;;;;;;;0.45;0.45;;;;;;;12.09;49.00;99128.66;5015504;28;20042;-64
2021/10/15 08:06:10;;;;;;;0.43;0.43;;;;;;;12.14;49.15;99122.44;5015286;28;20043;-65
2021/10/15 08:08:38;;;;;;;0.50;0.22;;;;;;;12.18;48.55;99115.38;5015014;28;20037;-64
2021/10/15 08:11:06;;;;;;;1.08;0.65;;;;;;;12.23;48.80;99112.75;5033490;28;20045;-65
2021/10/15 08:13:36;;;;;;;0.20;0.20;;;;;;;12.25;48.40;99113.34;5015214;28;20489;-65
2021/10/15 08:16:03;;;;;;;0.30;0.30;;;;;;;12.33;48.58;99100.31;5015055;28;20049;-66
2021/10/15 08:18:30;;;;;;;0.30;0.30;;;;;;;12.38;48.46;99104.03;5015142;28;20037;-66
2021/10/15 08:20:59;;;;;;;1.23;0.82;;;;;;;12.46;48.00;99104.75;5015412;28;20091;-64
2021/10/15 08:23:27;;;;;;;2.72;0.65;;;;;;;12.53;48.04;99100.78;5015225;28;20136;-65
2021/10/15 08:25:57;;;;;;;0.25;0.25;;;;;;;12.61;47.77;99091.31;5014733;28;20050;-65
2021/10/15 08:28:24;;;;;;;0.52;0.52;;;;;;;12.68;47.83;99078.25;5014857;28;20132;-65
2021/10/15 08:30:52;;;;;;;0.20;0.20;;;;;;;12.73;47.73;99080.28;5032127;28;20040;-65
2021/10/15 08:33:19;;;;;;;0.30;0.30;;;;;;;12.78;47.42;99080.41;5021714;28;20041;-64
2021/10/15 08:35:49;;;;;;;0.22;0.22;;;;;;;12.84;47.24;99079.41;5021684;28;20060;-65
2021/10/15 08:38:17;;;;;;;0.47;0.47;;;;;;;12.90;47.03;99077.63;5026995;28;20048;-65
2021/10/15 08:40:50;;;;;;;0.63;0.63;;;;;;;12.95;47.03;99062.00;5023529;28;20040;-65
2021/10/15 08:43:21;;;;;;;0.87;0.40;;;;;;;13.02;46.83;99061.88;5031292;28;20045;-64
2021/10/15 08:45:48;;;;;;;0.20;0.20;;;;;;;13.09;46.57;99064.50;5029315;28;20331;-65
2021/10/15 08:48:17;;;;;;;0.40;0.40;;;;;;;13.16;46.52;99062.41;5022218;28;20535;-65
2021/10/15 08:50:45;;;;;;;1.20;0.52;;;;;;;13.26;46.24;99051.56;5025607;28;20037;-65
2021/10/15 08:53:13;;;;;;;0.45;0.45;;;;;;;13.32;46.12;99047.84;5029438;28;20041;-65
2021/10/15 08:55:43;;;;;;;0.35;0.25;;;;;;;13.33;45.97;99060.53;5016728;28;20044;-65
2021/10/15 08:58:10;;;;;;;0.20;0.20;;;;;;;13.31;45.88;99048.94;5014782;28;20045;-65
2021/10/15 09:00:40;;;;;;;0.20;0.20;;;;;;;13.29;46.13;99037.31;5013559;28;20132;-65
2021/10/15 09:03:17;;;;;;;0.10;0.10;;;;;;;13.29;45.91;99041.97;5014002;28;20049;-64
2021/10/15 09:06:04;;;;;;;0.50;0.50;;;;;;;13.28;45.71;99026.50;5014261;28;20041;-64
2021/10/15 09:08:53;;;;;;;0.20;0.20;;;;;;;13.28;45.75;99023.75;5013912;28;20136;-66
2021/10/15 09:11:30;;;;;;;0.35;0.35;;;;;;;13.30;45.64;99027.94;5014250;28;20515;-64
2021/10/15 09:14:14;;;;;;;0.20;0.20;;;;;;;13.39;45.38;99027.56;5014001;28;20137;-64
2021/10/15 09:16:58;;;;;;;0.32;0.20;;;;;;;13.46;45.23;99015.28;5014576;28;20392;-65
2021/10/15 09:19:25;;;;;;;0.80;0.38;;;;;;;13.53;45.15;99006.00;5014540;28;20496;-64
2021/10/15 09:22:06;;;;;;;0.30;0.30;;;;;;;13.65;44.89;99001.28;5014063;28;20060;-65
2021/10/15 09:25:00;;;;;;;0.20;0.20;;;;;;;13.73;44.68;99003.59;5031351;28;20045;-64
2021/10/15 09:27:36;;;;;;;0.20;0.20;;;;;;;13.78;44.50;99002.84;5014100;28;20046;-64
2021/10/15 09:30:12;;;;;;;0.30;0.25;;;;;;;13.79;44.46;99008.13;5013408;28;20512;-64
2021/10/15 09:32:42;;;;;;;0.20;0.20;;;;;;;13.78;44.55;99003.69;5014179;28;20049;-67
2021/10/15 09:35:11;;;;;;;0.10;0.10;;;;;;;13.77;44.75;99004.78;5014300;28;20037;-69
2021/10/15 09:37:41;;;;;;;1.92;0.47;;;;;;;13.78;44.48;98997.31;5014443;28;20049;-65
2021/10/15 09:40:10;;;;;;;1.00;0.93;;;;;;;13.78;44.48;98991.81;5014289;28;20136;-64
2021/10/15 09:42:40;;;;;;;0.10;0.10;;;;;;;13.80;44.73;98989.66;5014258;28;20069;-64
2021/10/15 09:45:17;;;;;;;2.17;0.38;;;;;;;13.79;44.48;98996.25;5013841;28;20037;-65
2021/10/15 09:48:16;;;;;;;0.20;0.20;;;;;;;13.72;44.48;98995.56;5016141;28;20436;-66
2021/10/15 09:50:44;;;;;;;1.77;0.70;;;;;;;13.63;44.73;98987.72;5019050;28;20068;-65
2021/10/15 09:53:13;;;;;;;0.30;0.30;;;;;;;13.59;44.84;98986.56;5037288;28;20052;-67
2021/10/15 09:55:43;;;;;;;0.40;0.40;;;;;;;13.57;44.80;98979.59;5027883;28;20040;-66
2021/10/15 09:58:12;;;;;;;6.70;0.60;;;;;;;13.58;44.70;98982.13;5029193;28;20045;-65
2021/10/15 10:00:41;;;;;;;0.30;0.30;;;;;;;13.62;44.49;98975.00;5023889;28;20091;-65
2021/10/15 10:03:09;;;;;;;0.20;0.20;;;;;;;13.63;44.23;98981.34;5017018;28;20108;-65
2021/10/15 10:05:35;;;;;;;0.25;0.25;;;;;;;13.64;44.21;98972.84;5030224;28;20114;-65
2021/10/15 10:08:02;;;;;;;0.52;0.52;;;;;;;13.66;44.05;98976.19;5015250;28;20099;-65
2021/10/15 10:10:36;;;;;;;0.68;0.45;;;;;;;13.69;44.11;98963.78;5015411;28;20455;-64
2021/10/15 10:13:04;;;;;;;0.28;0.28;;;;;;;13.72;43.90;98956.94;5031821;28;20041;-65
2021/10/15 10:15:37;;;;;;;0.22;0.22;;;;;;;13.75;43.99;98962.81;5024323;28;20041;-65
2021/10/15 10:18:17;;;;;;;0.43;0.43;;;;;;;13.80;43.84;98962.06;5048302;28;20037;-66
2021/10/15 10:20:49;;;;;;;0.20;0.20;;;;;;;13.85;43.60;98951.06;5033303;28;20044;-66
2021/10/15 10:23:36;;;;;;;0.65;0.63;;;;;;;13.87;43.77;98954.44;5015124;28;20045;-64
2021/10/15 10:26:06;;;;;;;0.20;0.20;;;;;;;13.88;43.65;98949.75;5033103;28;20049;-66
2021/10/15 10:28:35;;;;;;;0.28;0.28;;;;;;;13.86;43.73;98946.41;5015160;28;20140;-68
2021/10/15 10:31:05;;;;;;;1.88;0.73;;;;;;;13.80;43.81;98939.97;5032332;28;20041;-67
2021/10/15 10:33:56;;;;;;;0.55;0.55;;;;;;;13.74;43.99;98943.75;5031691;28;20052;-65
2021/10/15 10:36:24;;;;;;;0.65;0.40;;;;;;;13.64;44.00;98939.72;5023327;28;20073;-64
2021/10/15 10:38:51;;;;;;;0.32;0.32;;;;;;;13.58;44.17;98942.66;5032218;28;20052;-65
2021/10/15 10:41:27;;;;;;;0.45;0.45;;;;;;;13.49;44.17;98929.28;5031185;28;20052;-65
2021/10/15 10:43:53;;;;;;;0.85;0.50;;;;;;;13.44;44.29;98936.63;5031064;28;20486;-64
2021/10/15 10:46:23;;;;;;;5.82;0.63;;;;;;;13.38;44.01;98930.19;5052921;28;20041;-65
2021/10/15 10:48:49;;;;;;;0.20;0.20;;;;;;;13.36;44.29;98932.38;5034560;28;20044;-63
2021/10/15 10:51:31;;;;;;;0.20;0.20;;;;;;;13.31;44.41;98930.34;5030271;28;20128;-64
2021/10/15 10:53:57;;;;;;;0.30;0.30;;;;;;;13.27;44.26;98940.19;5033092;28;20041;-65
2021/10/15 10:56:38;;;;;;;0.25;0.25;;;;;;;13.27;44.38;98925.59;5014754;28;20041;-64
2021/10/15 10:59:22;;;;;;;1.20;0.30;;;;;;;13.25;44.25;98922.22;5024675;28;20144;-64
2021/10/15 11:02:18;;;;;;;0.38;0.38;;;;;;;13.23;44.08;98916.13;5033660;28;20053;-67
2021/10/15 11:04:43;;;;;;;0.30;0.30;;;;;;;13.21;44.05;98935.69;5052407;28;20056;-65
2021/10/15 11:07:20;;;;;;;0.13;0.13;;;;;;;13.20;44.07;98927.66;5034602;28;20045;-64
2021/10/15 11:10:25;;;;;;;0.30;0.30;;;;;;;13.19;44.30;98918.56;5052277;28;20041;-65
2021/10/15 11:12:51;;;;;;;1.25;0.38;;;;;;;13.15;43.97;98922.91;5019737;28;20042;-65
2021/10/15 11:15:57;;;;;;;0.32;0.30;;;;;;;13.14;44.03;98912.94;5051827;28;20565;-65
2021/10/15 11:29:11;;;;;;;0.30;0.30;;;;;;;12.90;44.21;98904.81;5025395;28;20068;-66
2021/10/15 11:31:56;;;;;;;;;;;;;;;12.83;44.34;98906.88;5031973;28;20037;-64
2021/10/15 11:35:01;;;;;;;0.22;0.22;;;;;;;12.78;44.36;98893.03;5032144;28;20189;-66
2021/10/15 11:37:47;;;;;;;;;;;;;;;12.77;44.43;98886.66;5031524;28;20500;-64
2021/10/15 11:40:29;;;;;;;0.40;0.40;;;;;;;12.80;44.15;98888.09;5032297;28;19923;-66
2021/10/15 11:43:25;;;;;;;0.43;0.43;;;;;;;12.85;43.98;98879.91;5050243;28;20037;-64
2021/10/15 11:46:05;;;;;;;0.20;0.20;;;;;;;12.88;44.02;98876.69;5032820;28;20045;-63
2021/10/15 11:48:42;;;;;;;0.20;0.20;;;;;;;12.90;43.65;98877.25;5013687;28;20408;-63
2021/10/15 11:51:14;;;;;;;0.20;0.20;;;;;;;12.92;43.76;98885.28;5036672;28;20411;-64
2021/10/15 11:53:56;;;;;;;0.25;0.25;;;;;;;12.90;43.66;98881.94;5031139;28;20128;-64
2021/10/15 11:56:32;;;;;;;0.10;0.10;;;;;;;12.86;43.63;98878.84;5035442;28;20037;-64
2021/10/15 11:59:00;;;;;;;1.02;0.95;;;;;;;12.83;43.79;98879.34;5031236;28;20045;-65
2021/10/15 12:01:27;;;;;;;0.20;0.20;;;;;;;12.78;43.76;98882.84;5029829;28;20057;-63
2021/10/15 12:04:03;;;;;;;0.20;0.20;;;;;;;12.73;43.67;98879.97;5042152;28;20507;-65
2021/10/15 12:06:46;;;;;;;0.20;0.20;;;;;;;12.68;44.14;98884.56;5031837;28;20049;-65
2021/10/15 12:09:12;;;;;;;0.95;0.50;;;;;;;12.59;44.03;98884.97;5032010;28;20041;-64
2021/10/15 12:11:40;;;;;;;0.20;0.20;;;;;;;12.53;44.23;98874.94;5040342;28;20391;-64
2021/10/15 12:14:46;;;;;;;0.57;0.50;;;;;;;12.48;44.17;98869.31;5034294;28;20444;-65
2021/10/15 12:17:31;;;;;;;;;;;;;;;12.40;44.41;98876.06;5029722;28;20081;-67